^^
Saratoga-Weather Station Historical Data
Daily Summary for June 28, 2022 Units:  Metric    English   Both
Daily Weekly Monthly Yearly Custom
  High: Low: Average:
Temperature: 27.6 °C 12.8 °C 20.2 °C
Dew Point: 15.5 °C 11.1 °C 13.1 °C
Humidity: 96% 38% 68%
Wind Speed: 11.1km/h 0km/h 1.9km/h
Wind Gust: 17.7km/h - -
Wind- - ESE
Pressure: 1021.3 hPa 1014.6 hPa -
Precipitation: 0.0 mm    
Historical Graphs
 
 
Tabular Data for June 28, 2022
Time Temperature Dew Point Pressure Wind Wind Speed Wind Gust Humidity Rainfall Rate (Hourly) solar
00:00 16.3 °C 14.1 °C 1020.3 hPa Calm   1.6 km/h 87% 0.0 mm 0 W/m2
00:05 16.3 °C 14 °C 1020.3 hPa Calm     86% 0.0 mm 0 W/m2
00:10 16.2 °C 13.9 °C 1020.3 hPa Calm     86% 0.0 mm 0 W/m2
00:15 16.1 °C 13.8 °C 1020.7 hPa Calm     86% 0.0 mm 0 W/m2
00:20 16 °C 13.7 °C 1020.7 hPa Calm   1.6 km/h 86% 0.0 mm 0 W/m2
00:25 15.8 °C 13.5 °C 1020.7 hPa SSW 1.4 km/h 1.6 km/h 86% 0.0 mm 0 W/m2
00:30 15.7 °C 13.5 °C 1020.7 hPa Calm     87% 0.0 mm 0 W/m2
00:35 15.6 °C 13.6 °C 1020.7 hPa Calm   3.2 km/h 88% 0.0 mm 0 W/m2
00:40 15.4 °C 13.4 °C 1020.7 hPa Calm   1.6 km/h 88% 0.0 mm 0 W/m2
00:45 15.4 °C 13.4 °C 1020.7 hPa Calm     88% 0.0 mm 0 W/m2
00:50 15.5 °C 13.7 °C 1020.7 hPa Calm   1.6 km/h 89% 0.0 mm 0 W/m2
00:55 15.6 °C 13.8 °C 1020.7 hPa Calm     89% 0.0 mm 0 W/m2
01:00 15.6 °C 13.8 °C 1020.7 hPa Calm     89% 0.0 mm 0 W/m2
01:06 15.6 °C 13.8 °C 1020.7 hPa Calm     89% 0.0 mm 0 W/m2
01:11 15.6 °C 13.8 °C 1020.7 hPa Calm     89% 0.0 mm 0 W/m2
01:16 15.6 °C 13.8 °C 1020.7 hPa Calm     89% 0.0 mm 0 W/m2
01:21 15.6 °C 13.8 °C 1020.7 hPa Calm     89% 0.0 mm 0 W/m2
01:26 15.5 °C 13.7 °C 1020.7 hPa Calm     89% 0.0 mm 0 W/m2
01:31 15.5 °C 13.7 °C 1020.7 hPa Calm     89% 0.0 mm 0 W/m2
01:36 15.5 °C 13.7 °C 1020.7 hPa Calm     89% 0.0 mm 0 W/m2
01:41 15.5 °C 13.7 °C 1020.7 hPa Calm     89% 0.0 mm 0 W/m2
01:46 15.4 °C 13.6 °C 1020.7 hPa Calm     89% 0.0 mm 0 W/m2
01:51 15.4 °C 13.6 °C 1020.7 hPa Calm     89% 0.0 mm 0 W/m2
01:56 15.4 °C 13.6 °C 1020.7 hPa WSW 11.1 km/h 11.3 km/h 89% 0.0 mm 0 W/m2
02:01 15.5 °C 13.9 °C 1020.7 hPa West 1.4 km/h 4.8 km/h 90% 0.0 mm 0 W/m2
02:06 15.6 °C 14 °C 1020.7 hPa Calm   1.6 km/h 90% 0.0 mm 0 W/m2
02:11 15.7 °C 14.1 °C 1020.7 hPa ESE 3.2 km/h 4.8 km/h 90% 0.0 mm 0 W/m2
02:16 15.7 °C 14.1 °C 1020.7 hPa SW 1.4 km/h 1.6 km/h 90% 0.0 mm 0 W/m2
02:21 15.7 °C 14.2 °C 1020.3 hPa Calm     91% 0.0 mm 0 W/m2
02:26 15.7 °C 14.2 °C 1020.3 hPa Calm     91% 0.0 mm 0 W/m2
02:31 15.7 °C 14.2 °C 1020.3 hPa Calm     91% 0.0 mm 0 W/m2
02:36 15.7 °C 14.2 °C 1020.3 hPa Calm     91% 0.0 mm 0 W/m2
02:41 15.7 °C 14.2 °C 1020.3 hPa Calm     91% 0.0 mm 0 W/m2
02:46 15.6 °C 14.1 °C 1020.3 hPa Calm     91% 0.0 mm 0 W/m2
02:51 15.5 °C 14 °C 1020.3 hPa Calm     91% 0.0 mm 0 W/m2
02:56 15.4 °C 13.9 °C 1020.3 hPa Calm     91% 0.0 mm 0 W/m2
03:01 15.3 °C 13.8 °C 1020.3 hPa Calm     91% 0.0 mm 0 W/m2
03:06 15.2 °C 13.7 °C 1020.3 hPa Calm     91% 0.0 mm 0 W/m2
03:11 15.1 °C 13.6 °C 1020.3 hPa Calm     91% 0.0 mm 0 W/m2
03:16 14.9 °C 13.4 °C 1020.3 hPa Calm     91% 0.0 mm 0 W/m2
03:21 14.8 °C 13.3 °C 1020.3 hPa Calm     91% 0.0 mm 0 W/m2
03:26 14.7 °C 13.2 °C 1020.3 hPa Calm     91% 0.0 mm 0 W/m2
03:31 14.6 °C 13.1 °C 1020.3 hPa Calm     91% 0.0 mm 0 W/m2
03:36 14.5 °C 13.2 °C 1020.3 hPa Calm     92% 0.0 mm 0 W/m2
03:41 14.3 °C 12.9 °C 1020.3 hPa Calm     91% 0.0 mm 0 W/m2
03:46 14.3 °C 13 °C 1020.0 hPa Calm     92% 0.0 mm 0 W/m2
03:51 14.2 °C 12.9 °C 1020.0 hPa Calm     92% 0.0 mm 0 W/m2
03:56 14.1 °C 12.8 °C 1020.3 hPa Calm     92% 0.0 mm 0 W/m2
04:01 13.9 °C 12.6 °C 1020.3 hPa Calm     92% 0.0 mm 0 W/m2
04:06 13.8 °C 12.5 °C 1020.3 hPa Calm     92% 0.0 mm 0 W/m2
04:11 13.8 °C 12.5 °C 1020.3 hPa Calm     92% 0.0 mm 0 W/m2
04:16 13.7 °C 12.4 °C 1020.3 hPa Calm     92% 0.0 mm 0 W/m2
04:21 13.6 °C 12.5 °C 1020.3 hPa Calm     93% 0.0 mm 0 W/m2
04:26 13.6 °C 12.5 °C 1020.3 hPa Calm     93% 0.0 mm 0 W/m2
04:31 13.4 °C 12.3 °C 1020.3 hPa Calm     93% 0.0 mm 0 W/m2
04:36 13.4 °C 12.3 °C 1020.3 hPa Calm     93% 0.0 mm 0 W/m2
04:41 13.3 °C 12.2 °C 1020.3 hPa Calm     93% 0.0 mm 0 W/m2
04:46 13.3 °C 12.2 °C 1020.3 hPa Calm     93% 0.0 mm 0 W/m2
04:51 13.2 °C 12.1 °C 1020.3 hPa Calm     93% 0.0 mm 0 W/m2
04:56 13.2 °C 12.1 °C 1020.3 hPa Calm     93% 0.0 mm 0 W/m2
05:01 13.1 °C 12 °C 1020.3 hPa Calm     93% 0.0 mm 0 W/m2
05:06 13.1 °C 12.2 °C 1020.3 hPa Calm     94% 0.0 mm 0 W/m2
05:11 13 °C 12.1 °C 1020.7 hPa Calm     94% 0.0 mm 0 W/m2
05:16 13 °C 12.1 °C 1020.7 hPa Calm     94% 0.0 mm 0 W/m2
05:21 12.9 °C 12 °C 1020.7 hPa Calm     94% 0.0 mm 0 W/m2
05:26 12.9 °C 12 °C 1020.7 hPa Calm     94% 0.0 mm 0 W/m2
05:31 12.9 °C 12 °C 1020.7 hPa Calm     94% 0.0 mm 0 W/m2
05:36 12.9 °C 12 °C 1020.7 hPa Calm     94% 0.0 mm 5 W/m2
05:41 12.9 °C 12 °C 1020.7 hPa Calm     94% 0.0 mm 7 W/m2
05:46 12.9 °C 12 °C 1020.7 hPa Calm     94% 0.0 mm 7 W/m2
05:51 12.9 °C 12 °C 1020.7 hPa Calm     94% 0.0 mm 11 W/m2
05:56 12.9 °C 12 °C 1020.7 hPa Calm     94% 0.0 mm 12 W/m2
06:01 12.9 °C 12.1 °C 1020.7 hPa Calm     95% 0.0 mm 14 W/m2
06:06 12.8 °C 12 °C 1020.7 hPa Calm     95% 0.0 mm 18 W/m2
06:11 12.8 °C 12 °C 1021.0 hPa Calm     95% 0.0 mm 18 W/m2
06:16 12.8 °C 12 °C 1021.0 hPa Calm     95% 0.0 mm 23 W/m2
06:21 12.9 °C 12.1 °C 1021.0 hPa Calm     95% 0.0 mm 25 W/m2
06:26 12.9 °C 12.1 °C 1021.0 hPa Calm     95% 0.0 mm 26 W/m2
06:31 13 °C 12.2 °C 1021.0 hPa Calm     95% 0.0 mm 28 W/m2
06:36 13 °C 12.2 °C 1021.0 hPa Calm     95% 0.0 mm 30 W/m2
06:41 13.1 °C 12.3 °C 1021.0 hPa Calm     95% 0.0 mm 32 W/m2
06:46 13.1 °C 12.3 °C 1021.0 hPa Calm     95% 0.0 mm 32 W/m2
06:51 13.2 °C 12.4 °C 1021.0 hPa Calm     95% 0.0 mm 33 W/m2
06:56 13.3 °C 12.7 °C 1021.0 hPa Calm     96% 0.0 mm 33 W/m2
07:01 13.4 °C 12.8 °C 1021.0 hPa Calm     96% 0.0 mm 37 W/m2
07:06 13.6 °C 13 °C 1021.0 hPa Calm     96% 0.0 mm 39 W/m2
07:11 13.7 °C 13.1 °C 1021.0 hPa Calm     96% 0.0 mm 40 W/m2
07:16 13.8 °C 13.2 °C 1021.3 hPa NNE 3.2 km/h 4.8 km/h 96% 0.0 mm 46 W/m2
07:21 13.9 °C 13.3 °C 1021.3 hPa East 3.2 km/h 3.2 km/h 96% 0.0 mm 121 W/m2
07:26 14.1 °C 13.5 °C 1021.3 hPa ENE 3.2 km/h 4.8 km/h 96% 0.0 mm 149 W/m2
07:31 14.3 °C 13.7 °C 1021.3 hPa Calm   3.2 km/h 96% 0.0 mm 134 W/m2
07:36 14.6 °C 14 °C 1021.3 hPa East 1.4 km/h 4.8 km/h 96% 0.0 mm 142 W/m2
07:41 14.8 °C 14.2 °C 1021.3 hPa East 1.4 km/h 3.2 km/h 96% 0.0 mm 90 W/m2
07:46 14.8 °C 14 °C 1021.3 hPa East 4.7 km/h 4.8 km/h 95% 0.0 mm 58 W/m2
07:51 14.8 °C 13.8 °C 1021.3 hPa Calm   1.6 km/h 94% 0.0 mm 114 W/m2
07:56 14.9 °C 13.9 °C 1021.0 hPa NE 1.4 km/h 3.2 km/h 94% 0.0 mm 69 W/m2
08:01 15.1 °C 14.1 °C 1021.0 hPa NE 1.4 km/h 1.6 km/h 94% 0.0 mm 253 W/m2
08:06 15.3 °C 14.2 °C 1021.0 hPa ENE 3.2 km/h 3.2 km/h 93% 0.0 mm 274 W/m2
08:11 15.8 °C 14.7 °C 1021.0 hPa East 1.4 km/h 3.2 km/h 93% 0.0 mm 297 W/m2
08:16 15.9 °C 14.3 °C 1021.0 hPa East 1.4 km/h 4.8 km/h 90% 0.0 mm 295 W/m2
08:21 16.2 °C 14.6 °C 1021.0 hPa NNW 1.4 km/h 6.4 km/h 90% 0.0 mm 179 W/m2
08:26 16.4 °C 14.6 °C 1021.0 hPa Calm   3.2 km/h 89% 0.0 mm 109 W/m2
08:31 16.7 °C 14.5 °C 1021.0 hPa NE 3.2 km/h 6.4 km/h 87% 0.0 mm 114 W/m2
08:36 16.8 °C 14.6 °C 1021.0 hPa ENE 3.2 km/h 3.2 km/h 87% 0.0 mm 79 W/m2
08:41 17 °C 14.6 °C 1021.0 hPa Calm     86% 0.0 mm 93 W/m2
08:46 17.1 °C 14.4 °C 1021.0 hPa NE 1.4 km/h 6.4 km/h 84% 0.0 mm 116 W/m2
08:51 17 °C 14.3 °C 1021.0 hPa ENE 1.4 km/h 6.4 km/h 84% 0.0 mm 127 W/m2
08:56 17 °C 14.3 °C 1021.0 hPa ENE 1.4 km/h 6.4 km/h 84% 0.0 mm 125 W/m2
09:01 17.1 °C 14.4 °C 1021.0 hPa NNW 1.4 km/h 4.8 km/h 84% 0.0 mm 74 W/m2
09:06 17.3 °C 14.6 °C 1021.0 hPa ESE 3.2 km/h 4.8 km/h 84% 0.0 mm 72 W/m2
09:11 17.5 °C 14.6 °C 1021.0 hPa NE 4.7 km/h 4.8 km/h 83% 0.0 mm 130 W/m2
09:16 17.7 °C 15 °C 1021.0 hPa NNE 3.2 km/h 6.4 km/h 84% 0.0 mm 169 W/m2
09:21 17.8 °C 14.7 °C 1021.0 hPa NE 6.4 km/h 9.7 km/h 82% 0.0 mm 95 W/m2
09:26 18.1 °C 15.2 °C 1021.0 hPa East 1.4 km/h 4.8 km/h 83% 0.0 mm 62 W/m2
09:31 18.3 °C 15 °C 1021.0 hPa NE 4.7 km/h 6.4 km/h 81% 0.0 mm 56 W/m2
09:36 18.7 °C 15.4 °C 1021.0 hPa East 3.2 km/h 9.7 km/h 81% 0.0 mm 58 W/m2
09:41 19 °C 15.5 °C 1020.7 hPa Calm   6.4 km/h 80% 0.0 mm 58 W/m2
09:46 19.3 °C 15.4 °C 1020.7 hPa ESE 1.4 km/h 9.7 km/h 78% 0.0 mm 58 W/m2
09:51 19.6 °C 15.5 °C 1020.7 hPa East 3.2 km/h 6.4 km/h 77% 0.0 mm 114 W/m2
09:56 19.7 °C 15.3 °C 1020.7 hPa ENE 6.4 km/h 6.4 km/h 76% 0.0 mm 308 W/m2
10:01 19.7 °C 15.3 °C 1020.7 hPa ENE 3.2 km/h 4.8 km/h 76% 0.0 mm 555 W/m2
10:06 19.8 °C 15.2 °C 1020.7 hPa NNE 3.2 km/h 6.4 km/h 75% 0.0 mm 594 W/m2
10:11 19.8 °C 15 °C 1020.3 hPa Calm   4.8 km/h 74% 0.0 mm 547 W/m2
10:16 19.9 °C 14.9 °C 1020.3 hPa North 3.2 km/h 12.9 km/h 73% 0.0 mm 58 W/m2
10:21 20 °C 15 °C 1020.3 hPa NNW 3.2 km/h 4.8 km/h 73% 0.0 mm 130 W/m2
10:26 20.1 °C 15.1 °C 1020.3 hPa NNW 1.4 km/h 12.9 km/h 73% 0.0 mm 624 W/m2
10:31 20.3 °C 14.6 °C 1020.3 hPa ENE 1.4 km/h 12.9 km/h 70% 0.0 mm 652 W/m2
10:36 20.4 °C 15.2 °C 1020.3 hPa ESE 3.2 km/h 6.4 km/h 72% 0.0 mm 666 W/m2
10:41 20.6 °C 14.9 °C 1020.0 hPa NE 3.2 km/h 4.8 km/h 70% 0.0 mm 687 W/m2
10:46 20.7 °C 14.8 °C 1020.3 hPa NE 4.7 km/h 8 km/h 69% 0.0 mm 731 W/m2
10:51 20.8 °C 14.4 °C 1020.0 hPa Calm   3.2 km/h 67% 0.0 mm 158 W/m2
10:56 20.9 °C 14.3 °C 1020.0 hPa ESE 1.4 km/h 12.9 km/h 66% 0.0 mm 740 W/m2
11:01 20.9 °C 14.3 °C 1020.0 hPa ESE 4.7 km/h 9.7 km/h 66% 0.0 mm 798 W/m2
11:06 21.3 °C 14.9 °C 1020.0 hPa ENE 7.9 km/h 12.9 km/h 67% 0.0 mm 793 W/m2
11:11 21.4 °C 14.3 °C 1020.0 hPa South 1.4 km/h 11.3 km/h 64% 0.0 mm 770 W/m2
11:16 21.4 °C 14.3 °C 1020.0 hPa East 3.2 km/h 3.2 km/h 64% 0.0 mm 754 W/m2
11:21 21.4 °C 13.3 °C 1019.6 hPa NE 3.2 km/h 11.3 km/h 60% 0.0 mm 167 W/m2
11:26 21.5 °C 13.4 °C 1019.6 hPa East 3.2 km/h 9.7 km/h 60% 0.0 mm 789 W/m2
11:31 21.8 °C 13.2 °C 1019.6 hPa ESE 6.4 km/h 12.9 km/h 58% 0.0 mm 204 W/m2
11:36 21.9 °C 13.3 °C 1019.6 hPa NNE 1.4 km/h 3.2 km/h 58% 0.0 mm 858 W/m2
11:41 22.1 °C 12.6 °C 1019.6 hPa East 1.4 km/h 6.4 km/h 55% 0.0 mm 837 W/m2
11:46 22 °C 12.5 °C 1019.6 hPa NE 1.4 km/h 9.7 km/h 55% 0.0 mm 916 W/m2
11:51 22.2 °C 12.7 °C 1019.3 hPa ESE 6.4 km/h 9.7 km/h 55% 0.0 mm 983 W/m2
11:56 22.4 °C 12.6 °C 1019.3 hPa ESE 4.7 km/h 6.4 km/h 54% 0.0 mm 914 W/m2
12:01 22.6 °C 12.5 °C 1019.3 hPa NE 7.9 km/h 11.3 km/h 53% 0.0 mm 209 W/m2
12:06 22.8 °C 12.4 °C 1019.3 hPa East 3.2 km/h 4.8 km/h 52% 0.0 mm 925 W/m2
12:11 22.9 °C 12.5 °C 1019.3 hPa SE 11.1 km/h 11.3 km/h 52% 0.0 mm 893 W/m2
12:16 22.9 °C 11.9 °C 1019.0 hPa NNW 4.7 km/h 6.4 km/h 50% 0.0 mm 884 W/m2
12:21 23 °C 11.7 °C 1019.0 hPa Calm   6.4 km/h 49% 0.0 mm 881 W/m2
12:26 23.1 °C 12.1 °C 1019.0 hPa WSW 6.4 km/h 6.4 km/h 50% 0.0 mm 907 W/m2
12:31 22.9 °C 11.9 °C 1019.0 hPa North 1.4 km/h 12.9 km/h 50% 0.0 mm 918 W/m2
12:36 23.1 °C 12.4 °C 1019.0 hPa ENE 4.7 km/h 9.7 km/h 51% 0.0 mm 986 W/m2
12:41 23.2 °C 12.8 °C 1019.0 hPa ENE 4.7 km/h 6.4 km/h 52% 0.0 mm 940 W/m2
12:46 23.3 °C 12 °C 1019.0 hPa ESE 3.2 km/h 6.4 km/h 49% 0.0 mm 993 W/m2
12:51 23.4 °C 12.7 °C 1018.6 hPa SE 3.2 km/h 4.8 km/h 51% 0.0 mm 1005 W/m2
12:56 23.7 °C 13 °C 1019.0 hPa NE 4.7 km/h 9.7 km/h 51% 0.0 mm 951 W/m2
13:01 23.7 °C 12.4 °C 1018.6 hPa North 4.7 km/h 8 km/h 49% 0.0 mm 919 W/m2
13:06 23.4 °C 12.7 °C 1018.6 hPa ESE 3.2 km/h 3.2 km/h 51% 0.0 mm 200 W/m2
13:11 23.3 °C 12 °C 1018.6 hPa ENE 6.4 km/h 16.1 km/h 49% 0.0 mm 979 W/m2
13:16 23.3 °C 12 °C 1018.3 hPa ENE 4.7 km/h 6.4 km/h 49% 0.0 mm 914 W/m2
13:21 23.6 °C 13.2 °C 1018.3 hPa ESE 3.2 km/h 16.1 km/h 52% 0.0 mm 921 W/m2
13:26 23.8 °C 12.8 °C 1018.3 hPa ENE 1.4 km/h 9.7 km/h 50% 0.0 mm 953 W/m2
13:31 24 °C 12.3 °C 1018.3 hPa NE 4.7 km/h 16.1 km/h 48% 0.0 mm 930 W/m2
13:36 24.2 °C 12.2 °C 1018.0 hPa ENE 3.2 km/h 9.7 km/h 47% 0.0 mm 919 W/m2
13:41 24.2 °C 12.5 °C 1018.0 hPa NE 1.4 km/h 11.3 km/h 48% 0.0 mm 918 W/m2
13:46 24.3 °C 11.6 °C 1018.0 hPa ENE 3.2 km/h 9.7 km/h 45% 0.0 mm 928 W/m2
13:51 24.3 °C 12.3 °C 1018.0 hPa ENE 3.2 km/h 9.7 km/h 47% 0.0 mm 926 W/m2
13:56 24.4 °C 11.7 °C 1018.0 hPa NE 1.4 km/h 9.7 km/h 45% 0.0 mm 932 W/m2
14:01 24.4 °C 12 °C 1017.6 hPa SSE 3.2 km/h 6.4 km/h 46% 0.0 mm 932 W/m2
14:06 24.6 °C 12.9 °C 1018.0 hPa NNE 1.4 km/h 6.4 km/h 48% 0.0 mm 925 W/m2
14:11 24.7 °C 12.3 °C 1017.6 hPa ENE 1.4 km/h 6.4 km/h 46% 0.0 mm 928 W/m2
14:16 24.8 °C 12.4 °C 1017.6 hPa East 3.2 km/h 11.3 km/h 46% 0.0 mm 923 W/m2
14:21 24.8 °C 12.1 °C 1017.6 hPa SE 4.7 km/h 6.4 km/h 45% 0.0 mm 919 W/m2
14:27 24.7 °C 12.6 °C 1017.3 hPa East 4.7 km/h 11.3 km/h 47% 0.0 mm 916 W/m2
14:32 24.9 °C 11.8 °C 1017.3 hPa NE 3.2 km/h 9.7 km/h 44% 0.0 mm 919 W/m2
14:37 24.8 °C 12.7 °C 1017.3 hPa ENE 3.2 km/h 6.4 km/h 47% 0.0 mm 916 W/m2
14:42 24.8 °C 12.1 °C 1017.3 hPa ESE 1.4 km/h 8 km/h 45% 0.0 mm 918 W/m2
14:47 25.1 °C 11.6 °C 1017.3 hPa SE 4.7 km/h 11.3 km/h 43% 0.0 mm 914 W/m2
14:52 25.3 °C 12.2 °C 1016.9 hPa NNW 4.7 km/h 8 km/h 44% 0.0 mm 914 W/m2
14:57 25.3 °C 11.8 °C 1016.9 hPa ESE 3.2 km/h 9.7 km/h 43% 0.0 mm 905 W/m2
15:02 25.4 °C 12.6 °C 1017.3 hPa SE 1.4 km/h 12.9 km/h 45% 0.0 mm 902 W/m2
15:07 25.6 °C 12.1 °C 1016.9 hPa ESE 4.7 km/h 17.7 km/h 43% 0.0 mm 898 W/m2
15:12 25.7 °C 12.5 °C 1017.3 hPa East 3.2 km/h 11.3 km/h 44% 0.0 mm 889 W/m2
15:17 25.6 °C 12.8 °C 1016.9 hPa ENE 4.7 km/h 17.7 km/h 45% 0.0 mm 911 W/m2
15:22 25.6 °C 12.1 °C 1016.9 hPa ESE 3.2 km/h 8 km/h 43% 0.0 mm 895 W/m2
15:27 25.7 °C 12.5 °C 1016.9 hPa SW 3.2 km/h 4.8 km/h 44% 0.0 mm 902 W/m2
15:32 25.7 °C 12.2 °C 1016.6 hPa WSW 3.2 km/h 9.7 km/h 43% 0.0 mm 888 W/m2
15:37 25.7 °C 12.2 °C 1016.6 hPa NE 3.2 km/h 6.4 km/h 43% 0.0 mm 875 W/m2
15:42 25.8 °C 11.9 °C 1016.6 hPa West 3.2 km/h 6.4 km/h 42% 0.0 mm 854 W/m2
15:47 25.9 °C 12.7 °C 1016.6 hPa SSE 6.4 km/h 9.7 km/h 44% 0.0 mm 844 W/m2
15:52 26.2 °C 12.6 °C 1016.6 hPa East 1.4 km/h 6.4 km/h 43% 0.0 mm 837 W/m2
15:57 26.1 °C 12.5 °C 1016.6 hPa ENE 4.7 km/h 8 km/h 43% 0.0 mm 828 W/m2
16:02 26 °C 12.1 °C 1016.3 hPa East 6.4 km/h 6.4 km/h 42% 0.0 mm 817 W/m2
16:07 25.9 °C 13.1 °C 1016.3 hPa SE 4.7 km/h 6.4 km/h 45% 0.0 mm 805 W/m2
16:12 26.1 °C 12.2 °C 1016.3 hPa East 1.4 km/h 9.7 km/h 42% 0.0 mm 798 W/m2
16:17 26.2 °C 12.3 °C 1016.3 hPa ENE 1.4 km/h 6.4 km/h 42% 0.0 mm 789 W/m2
16:22 26.4 °C 11.3 °C 1016.3 hPa SE 4.7 km/h 9.7 km/h 39% 0.0 mm 779 W/m2
16:27 26.5 °C 11.4 °C 1016.3 hPa Calm   4.8 km/h 39% 0.0 mm 772 W/m2
16:32 26.6 °C 11.1 °C 1016.3 hPa South 3.2 km/h 9.7 km/h 38% 0.0 mm 751 W/m2
16:37 26.7 °C 12.4 °C 1016.3 hPa NE 1.4 km/h 9.7 km/h 41% 0.0 mm 740 W/m2
16:42 26.8 °C 12.4 °C 1016.3 hPa East 3.2 km/h 14.5 km/h 41% 0.0 mm 733 W/m2
16:47 26.8 °C 11.7 °C 1015.9 hPa NNW 7.9 km/h 8 km/h 39% 0.0 mm 719 W/m2
16:52 26.8 °C 12.1 °C 1015.9 hPa NE 4.7 km/h 9.7 km/h 40% 0.0 mm 707 W/m2
16:57 26.9 °C 12.5 °C 1015.9 hPa ESE 3.2 km/h 11.3 km/h 41% 0.0 mm 700 W/m2
17:02 26.9 °C 11.8 °C 1015.9 hPa SE 7.9 km/h 12.9 km/h 39% 0.0 mm 691 W/m2
17:07 26.9 °C 12.2 °C 1015.9 hPa East 4.7 km/h 6.4 km/h 40% 0.0 mm 684 W/m2
17:12 26.9 °C 12.2 °C 1015.6 hPa NNE 3.2 km/h 14.5 km/h 40% 0.0 mm 682 W/m2
17:17 26.8 °C 12.4 °C 1015.9 hPa SE 7.9 km/h 8 km/h 41% 0.0 mm 680 W/m2
17:22 26.9 °C 12.2 °C 1015.9 hPa SE 3.2 km/h 4.8 km/h 40% 0.0 mm 751 W/m2
17:27 27.1 °C 12.7 °C 1015.9 hPa ESE 4.7 km/h 9.7 km/h 41% 0.0 mm 828 W/m2
17:32 27.2 °C 12 °C 1015.6 hPa ESE 4.7 km/h 11.3 km/h 39% 0.0 mm 821 W/m2
17:37 27.4 °C 12.2 °C 1015.6 hPa East 3.2 km/h 11.3 km/h 39% 0.0 mm 359 W/m2
17:42 27.1 °C 11.6 °C 1015.6 hPa ENE 1.4 km/h 6.4 km/h 38% 0.0 mm 360 W/m2
17:47 26.9 °C 12.5 °C 1015.6 hPa Calm   9.7 km/h 41% 0.0 mm 355 W/m2
17:52 26.8 °C 12.4 °C 1015.6 hPa ENE 1.4 km/h 4.8 km/h 41% 0.0 mm 515 W/m2
17:57 26.8 °C 12.4 °C 1015.2 hPa WSW 1.4 km/h 9.7 km/h 41% 0.0 mm 339 W/m2
18:02 26.7 °C 12.4 °C 1015.2 hPa ESE 6.4 km/h 6.4 km/h 41% 0.0 mm 478 W/m2
18:07 26.9 °C 12.9 °C 1015.2 hPa ENE 3.2 km/h 8 km/h 42% 0.0 mm 478 W/m2
18:12 27.1 °C 12.7 °C 1015.2 hPa NE 4.7 km/h 14.5 km/h 41% 0.0 mm 715 W/m2
18:17 27.4 °C 13 °C 1015.2 hPa ESE 3.2 km/h 11.3 km/h 41% 0.0 mm 682 W/m2
18:22 27.5 °C 13.4 °C 1015.2 hPa ESE 1.4 km/h 14.5 km/h 42% 0.0 mm 566 W/m2
18:27 27.6 °C 13.2 °C 1015.2 hPa ENE 3.2 km/h 11.3 km/h 41% 0.0 mm 512 W/m2
18:32 27.4 °C 13 °C 1015.2 hPa ENE 3.2 km/h 4.8 km/h 41% 0.0 mm 455 W/m2
18:37 27 °C 12.6 °C 1015.2 hPa Calm   11.3 km/h 41% 0.0 mm 390 W/m2
18:42 26.9 °C 12.9 °C 1015.2 hPa Calm   3.2 km/h 42% 0.0 mm 360 W/m2
18:47 26.8 °C 12.4 °C 1015.2 hPa East 4.7 km/h 6.4 km/h 41% 0.0 mm 336 W/m2
18:52 26.6 °C 12.3 °C 1015.2 hPa NE 6.4 km/h 8 km/h 41% 0.0 mm 227 W/m2
18:57 26.4 °C 11.7 °C 1014.9 hPa North 3.2 km/h 3.2 km/h 40% 0.0 mm 76 W/m2
19:02 26.4 °C 12.5 °C 1014.9 hPa East 1.4 km/h 9.7 km/h 42% 0.0 mm 74 W/m2
19:07 26.6 °C 12.6 °C 1014.9 hPa SE 3.2 km/h 6.4 km/h 42% 0.0 mm 83 W/m2
19:12 26.7 °C 12.7 °C 1014.9 hPa ESE 3.2 km/h 6.4 km/h 42% 0.0 mm 77 W/m2
19:17 26.7 °C 12.4 °C 1014.9 hPa ENE 1.4 km/h 4.8 km/h 41% 0.0 mm 72 W/m2
19:23 26.6 °C 12.3 °C 1014.6 hPa East 3.2 km/h 6.4 km/h 41% 0.0 mm 69 W/m2
19:28 26.6 °C 12.6 °C 1014.6 hPa ESE 1.4 km/h 4.8 km/h 42% 0.0 mm 63 W/m2
19:33 26.6 °C 12.6 °C 1014.6 hPa ESE 1.4 km/h 3.2 km/h 42% 0.0 mm 62 W/m2
19:38 26.6 °C 12.6 °C 1014.6 hPa SE 4.7 km/h 4.8 km/h 42% 0.0 mm 60 W/m2
19:43 26.4 °C 12.5 °C 1014.6 hPa ENE 4.7 km/h 6.4 km/h 42% 0.0 mm 62 W/m2
19:48 26.3 °C 13.1 °C 1014.6 hPa SE 1.4 km/h 3.2 km/h 44% 0.0 mm 62 W/m2
19:53 26.3 °C 12.7 °C 1014.6 hPa Calm   8 km/h 43% 0.0 mm 62 W/m2
19:58 26.3 °C 12.7 °C 1014.6 hPa NE 1.4 km/h 4.8 km/h 43% 0.0 mm 98 W/m2
20:03 26.3 °C 12.4 °C 1014.6 hPa ENE 1.4 km/h 1.6 km/h 42% 0.0 mm 176 W/m2
20:08 26.3 °C 13.8 °C 1014.6 hPa Calm     46% 0.0 mm 67 W/m2
20:13 26.3 °C 13.1 °C 1014.6 hPa South 3.2 km/h 9.7 km/h 44% 0.0 mm 63 W/m2
20:18 26.2 °C 12.6 °C 1014.6 hPa SSW 3.2 km/h 6.4 km/h 43% 0.0 mm 56 W/m2
20:23 26 °C 13.1 °C 1014.6 hPa ENE 3.2 km/h 3.2 km/h 45% 0.0 mm 62 W/m2
20:28 25.8 °C 13 °C 1014.9 hPa ESE 3.2 km/h 4.8 km/h 45% 0.0 mm 46 W/m2
20:33 25.5 °C 13.7 °C 1014.9 hPa SE 1.4 km/h 3.2 km/h 48% 0.0 mm 46 W/m2
20:38 25.3 °C 13.5 °C 1014.6 hPa Calm   3.2 km/h 48% 0.0 mm 53 W/m2
20:43 25 °C 13.9 °C 1014.6 hPa Calm     50% 0.0 mm 63 W/m2
20:48 24.8 °C 14 °C 1014.6 hPa Calm   3.2 km/h 51% 0.0 mm 60 W/m2
20:53 24.6 °C 13.2 °C 1014.6 hPa Calm   3.2 km/h 49% 0.0 mm 79 W/m2
20:58 24.4 °C 13.9 °C 1014.6 hPa Calm   1.6 km/h 52% 0.0 mm 72 W/m2
21:03 24.4 °C 13.9 °C 1014.6 hPa Calm   1.6 km/h 52% 0.0 mm 62 W/m2
21:08 24.4 °C 13.3 °C 1014.6 hPa Calm   1.6 km/h 50% 0.0 mm 47 W/m2
21:13 24.3 °C 13.5 °C 1014.9 hPa NW 1.4 km/h 1.6 km/h 51% 0.0 mm 37 W/m2
21:18 24.2 °C 13.7 °C 1014.6 hPa Calm   3.2 km/h 52% 0.0 mm 19 W/m2
21:23 23.8 °C 12.8 °C 1014.9 hPa WSW 4.7 km/h 4.8 km/h 50% 0.0 mm 14 W/m2
21:28 23.4 °C 13.3 °C 1014.9 hPa Calm   1.6 km/h 53% 0.0 mm 12 W/m2
21:33 23.2 °C 13.4 °C 1014.9 hPa WSW 1.4 km/h 3.2 km/h 54% 0.0 mm 9 W/m2
21:38 22.8 °C 13.6 °C 1014.9 hPa WSW 1.4 km/h 3.2 km/h 56% 0.0 mm 7 W/m2
21:43 22.4 °C 13.7 °C 1014.9 hPa Calm   1.6 km/h 58% 0.0 mm 5 W/m2
21:48 22.1 °C 13.2 °C 1014.9 hPa WSW 3.2 km/h 3.2 km/h 57% 0.0 mm 0 W/m2
21:53 21.7 °C 13.3 °C 1014.9 hPa WSW 1.4 km/h 3.2 km/h 59% 0.0 mm 0 W/m2
21:58 21.4 °C 13.3 °C 1014.9 hPa Calm   3.2 km/h 60% 0.0 mm 0 W/m2
22:03 21.1 °C 13.3 °C 1014.9 hPa Calm   3.2 km/h 61% 0.0 mm 0 W/m2
22:08 20.8 °C 13 °C 1014.9 hPa WSW 1.4 km/h 1.6 km/h 61% 0.0 mm 0 W/m2
22:13 20.6 °C 13.3 °C 1014.9 hPa WSW 1.4 km/h 3.2 km/h 63% 0.0 mm 0 W/m2
22:18 20.3 °C 13.3 °C 1014.9 hPa WSW 1.4 km/h 3.2 km/h 64% 0.0 mm 0 W/m2
22:23 20.2 °C 13.4 °C 1014.9 hPa Calm   1.6 km/h 65% 0.0 mm 0 W/m2
22:28 19.9 °C 13.1 °C 1014.9 hPa Calm   1.6 km/h 65% 0.0 mm 0 W/m2
22:33 19.8 °C 13.3 °C 1014.9 hPa Calm     66% 0.0 mm 0 W/m2
22:38 19.6 °C 12.8 °C 1014.9 hPa WSW 1.4 km/h 3.2 km/h 65% 0.0 mm 0 W/m2
22:43 19.5 °C 13.2 °C 1014.9 hPa Calm   1.6 km/h 67% 0.0 mm 0 W/m2
22:48 19.3 °C 13 °C 1014.9 hPa WSW 1.4 km/h 3.2 km/h 67% 0.0 mm 0 W/m2
22:53 19.2 °C 13.1 °C 1014.9 hPa Calm     68% 0.0 mm 0 W/m2
22:58 19.1 °C 13.1 °C 1014.9 hPa Calm     68% 0.0 mm 0 W/m2
23:03 19 °C 13.2 °C 1014.9 hPa Calm     69% 0.0 mm 0 W/m2
23:08 18.8 °C 13.2 °C 1014.9 hPa Calm     70% 0.0 mm 0 W/m2
23:13 18.7 °C 13.1 °C 1014.9 hPa Calm     70% 0.0 mm 0 W/m2
23:18 18.6 °C 13 °C 1014.9 hPa Calm     70% 0.0 mm 0 W/m2
23:23 18.4 °C 12.8 °C 1014.9 hPa Calm     70% 0.0 mm 0 W/m2
23:28 18.4 °C 12.8 °C 1014.9 hPa Calm     70% 0.0 mm 0 W/m2
23:33 18.4 °C 13 °C 1014.9 hPa Calm     71% 0.0 mm 0 W/m2
23:38 18.4 °C 13 °C 1014.9 hPa Calm     71% 0.0 mm 0 W/m2
23:43 18.4 °C 13 °C 1014.9 hPa Calm     71% 0.0 mm 0 W/m2
23:48 18.4 °C 13.3 °C 1014.9 hPa Calm     72% 0.0 mm 0 W/m2
23:53 18.5 °C 13.4 °C 1014.9 hPa WSW 1.4 km/h 1.6 km/h 72% 0.0 mm 0 W/m2
23:58 18.6 °C 13.2 °C 1014.6 hPa Calm     71% 0.0 mm 0 W/m2
Juneau County Weather
Compliments of Weather Underground - 4 mb